sensor_id;sensor_type;location;lat;lon;timestamp;pressure;altitude;pressure_sealevel;temperature;humidity
19447;BME280;9862;49.462;11.054;2023-07-31T00:00:58;98016.53;;;19.56;100.00
19447;BME280;9862;49.462;11.054;2023-07-31T00:03:26;98014.13;;;19.60;100.00
19447;BME280;9862;49.462;11.054;2023-07-31T00:05:53;98010.31;;;19.51;100.00
19447;BME280;9862;49.462;11.054;2023-07-31T00:08:20;98004.09;;;19.50;100.00
19447;BME280;9862;49.462;11.054;2023-07-31T00:10:51;98002.41;;;19.39;100.00
19447;BME280;9862;49.462;11.054;2023-07-31T00:13:20;98002.16;;;19.35;100.00
19447;BME280;9862;49.462;11.054;2023-07-31T00:15:47;98000.53;;;19.34;100.00
19447;BME280;9862;49.462;11.054;2023-07-31T00:18:14;97999.72;;;19.34;100.00
19447;BME280;9862;49.462;11.054;2023-07-31T00:20:41;97996.78;;;19.45;100.00
19447;BME280;9862;49.462;11.054;2023-07-31T00:23:08;97989.22;;;19.48;100.00
19447;BME280;9862;49.462;11.054;2023-07-31T00:25:35;97992.19;;;19.46;100.00
19447;BME280;9862;49.462;11.054;2023-07-31T00:28:02;97990.31;;;19.41;100.00
19447;BME280;9862;49.462;11.054;2023-07-31T00:30:31;97991.94;;;19.53;100.00
19447;BME280;9862;49.462;11.054;2023-07-31T00:32:58;97999.56;;;19.71;100.00
19447;BME280;9862;49.462;11.054;2023-07-31T00:35:24;97991.38;;;19.45;100.00
19447;BME280;9862;49.462;11.054;2023-07-31T00:37:52;97990.88;;;19.54;100.00
19447;BME280;9862;49.462;11.054;2023-07-31T00:40:18;97993.06;;;19.67;100.00
19447;BME280;9862;49.462;11.054;2023-07-31T00:42:45;97993.63;;;19.74;100.00
19447;BME280;9862;49.462;11.054;2023-07-31T00:45:13;97990.91;;;19.74;100.00
19447;BME280;9862;49.462;11.054;2023-07-31T00:47:41;97985.53;;;19.69;100.00
19447;BME280;9862;49.462;11.054;2023-07-31T00:50:09;97984.97;;;19.62;100.00
19447;BME280;9862;49.462;11.054;2023-07-31T00:52:36;97987.94;;;19.60;100.00
19447;BME280;9862;49.462;11.054;2023-07-31T00:55:03;97989.78;;;19.55;100.00
19447;BME280;9862;49.462;11.054;2023-07-31T00:57:32;97992.50;;;19.50;100.00
19447;BME280;9862;49.462;11.054;2023-07-31T00:59:59;97988.13;;;19.43;100.00
19447;BME280;9862;49.462;11.054;2023-07-31T01:02:26;97988.72;;;19.56;100.00
19447;BME280;9862;49.462;11.054;2023-07-31T01:04:55;97989.56;;;19.61;100.00
19447;BME280;9862;49.462;11.054;2023-07-31T01:07:27;97990.88;;;19.54;100.00
19447;BME280;9862;49.462;11.054;2023-07-31T01:10:04;97987.03;;;19.39;100.00
19447;BME280;9862;49.462;11.054;2023-07-31T01:12:34;97980.81;;;19.39;100.00
19447;BME280;9862;49.462;11.054;2023-07-31T01:15:04;97972.22;;;19.42;100.00
19447;BME280;9862;49.462;11.054;2023-07-31T01:17:31;97975.47;;;19.44;100.00
19447;BME280;9862;49.462;11.054;2023-07-31T01:20:02;97973.84;;;19.43;100.00
19447;BME280;9862;49.462;11.054;2023-07-31T01:22:45;97977.59;;;19.47;100.00
19447;BME280;9862;49.462;11.054;2023-07-31T01:25:22;97964.72;;;19.64;100.00
19447;BME280;9862;49.462;11.054;2023-07-31T01:27:59;97967.09;;;19.51;100.00
19447;BME280;9862;49.462;11.054;2023-07-31T01:30:32;97967.66;;;19.53;100.00
19447;BME280;9862;49.462;11.054;2023-07-31T01:33:02;97963.56;;;19.45;100.00
19447;BME280;9862;49.462;11.054;2023-07-31T01:35:32;97964.38;;;19.35;100.00
19447;BME280;9862;49.462;11.054;2023-07-31T01:37:59;97968.16;;;19.34;100.00
19447;BME280;9862;49.462;11.054;2023-07-31T01:40:26;97967.59;;;19.37;100.00
19447;BME280;9862;49.462;11.054;2023-07-31T01:42:54;97969.78;;;19.45;100.00
19447;BME280;9862;49.462;11.054;2023-07-31T01:45:22;97957.34;;;19.39;100.00
19447;BME280;9862;49.462;11.054;2023-07-31T01:47:49;97960.59;;;19.36;100.00
19447;BME280;9862;49.462;11.054;2023-07-31T01:50:17;97958.72;;;19.32;100.00
19447;BME280;9862;49.462;11.054;2023-07-31T01:52:43;97967.34;;;19.39;100.00
19447;BME280;9862;49.462;11.054;2023-07-31T01:55:10;97952.75;;;19.35;100.00
19447;BME280;9862;49.462;11.054;2023-07-31T01:57:37;97956.25;;;19.25;100.00
19447;BME280;9862;49.462;11.054;2023-07-31T02:00:04;97956.28;;;19.30;100.00
19447;BME280;9862;49.462;11.054;2023-07-31T02:02:33;97954.13;;;19.32;100.00
19447;BME280;9862;49.462;11.054;2023-07-31T02:05:00;97946.56;;;19.34;100.00
19447;BME280;9862;49.462;11.054;2023-07-31T02:07:29;97941.16;;;19.34;100.00
19447;BME280;9862;49.462;11.054;2023-07-31T02:09:56;97938.97;;;19.26;100.00
19447;BME280;9862;49.462;11.054;2023-07-31T02:12:23;97926.03;;;19.38;100.00
19447;BME280;9862;49.462;11.054;2023-07-31T02:14:50;97932.78;;;19.36;100.00
19447;BME280;9862;49.462;11.054;2023-07-31T02:17:18;97920.41;;;19.40;100.00
19447;BME280;9862;49.462;11.054;2023-07-31T02:19:48;97924.94;;;19.29;100.00
19447;BME280;9862;49.462;11.054;2023-07-31T02:22:15;97921.72;;;19.32;100.00
19447;BME280;9862;49.462;11.054;2023-07-31T02:24:41;97922.00;;;19.36;100.00
19447;BME280;9862;49.462;11.054;2023-07-31T02:27:10;97925.53;;;19.41;100.00
19447;BME280;9862;49.462;11.054;2023-07-31T02:29:38;97918.25;;;19.42;100.00
19447;BME280;9862;49.462;11.054;2023-07-31T02:32:06;97916.06;;;19.39;100.00
19447;BME280;9862;49.462;11.054;2023-07-31T02:34:33;97922.25;;;19.39;100.00
19447;BME280;9862;49.462;11.054;2023-07-31T02:37:03;97916.88;;;19.39;100.00
19447;BME280;9862;49.462;11.054;2023-07-31T02:39:32;97914.72;;;19.41;100.00
19447;BME280;9862;49.462;11.054;2023-07-31T02:41:59;97915.81;;;19.45;100.00
19447;BME280;9862;49.462;11.054;2023-07-31T02:44:26;97919.84;;;19.48;100.00
19447;BME280;9862;49.462;11.054;2023-07-31T02:46:54;97917.97;;;19.54;100.00
19447;BME280;9862;49.462;11.054;2023-07-31T02:49:20;97909.88;;;19.54;100.00
19447;BME280;9862;49.462;11.054;2023-07-31T02:51:48;97913.13;;;19.56;100.00
19447;BME280;9862;49.462;11.054;2023-07-31T02:54:17;97923.94;;;19.61;100.00
19447;BME280;9862;49.462;11.054;2023-07-31T02:56:46;97915.28;;;19.59;100.00
19447;BME280;9862;49.462;11.054;2023-07-31T02:59:12;97923.09;;;19.40;100.00
19447;BME280;9862;49.462;11.054;2023-07-31T03:01:40;97922.03;;;19.41;100.00
19447;BME280;9862;49.462;11.054;2023-07-31T03:04:08;97911.53;;;19.65;100.00
19447;BME280;9862;49.462;11.054;2023-07-31T03:06:34;97911.50;;;19.50;100.00
19447;BME280;9862;49.462;11.054;2023-07-31T03:09:02;97910.41;;;19.40;100.00
19447;BME280;9862;49.462;11.054;2023-07-31T03:11:31;97910.66;;;19.39;100.00
19447;BME280;9862;49.462;11.054;2023-07-31T03:13:58;97909.06;;;19.48;100.00
19447;BME280;9862;49.462;11.054;2023-07-31T03:16:25;97912.56;;;19.54;100.00
19447;BME280;9862;49.462;11.054;2023-07-31T03:18:52;97909.09;;;19.58;100.00
19447;BME280;9862;49.462;11.054;2023-07-31T03:21:19;97911.53;;;19.60;100.00
19447;BME280;9862;49.462;11.054;2023-07-31T03:23:46;97912.88;;;19.57;100.00
19447;BME280;9862;49.462;11.054;2023-07-31T03:26:12;97903.97;;;19.62;100.00
19447;BME280;9862;49.462;11.054;2023-07-31T03:28:40;97905.03;;;19.56;100.00
19447;BME280;9862;49.462;11.054;2023-07-31T03:31:07;97903.13;;;19.46;100.00
19447;BME280;9862;49.462;11.054;2023-07-31T03:33:34;97903.94;;;19.52;100.00
19447;BME280;9862;49.462;11.054;2023-07-31T03:36:02;97901.78;;;19.54;100.00
19447;BME280;9862;49.462;11.054;2023-07-31T03:38:29;97905.00;;;19.45;100.00
19447;BME280;9862;49.462;11.054;2023-07-31T03:40:56;97905.53;;;19.48;100.00
19447;BME280;9862;49.462;11.054;2023-07-31T03:43:24;97902.59;;;19.54;100.00
19447;BME280;9862;49.462;11.054;2023-07-31T03:45:52;97910.13;;;19.42;100.00
19447;BME280;9862;49.462;11.054;2023-07-31T03:48:19;97902.84;;;19.48;100.00
19447;BME280;9862;49.462;11.054;2023-07-31T03:50:46;97905.25;;;19.39;100.00
19447;BME280;9862;49.462;11.054;2023-07-31T03:53:13;97899.34;;;19.47;100.00
19447;BME280;9862;49.462;11.054;2023-07-31T03:55:40;97898.25;;;19.43;100.00
19447;BME280;9862;49.462;11.054;2023-07-31T03:58:07;97906.34;;;19.23;100.00
19447;BME280;9862;49.462;11.054;2023-07-31T04:00:33;97906.91;;;19.40;100.00
19447;BME280;9862;49.462;11.054;2023-07-31T04:03:02;97910.13;;;19.42;100.00
19447;BME280;9862;49.462;11.054;2023-07-31T04:05:31;97911.75;;;19.33;100.00
19447;BME280;9862;49.462;11.054;2023-07-31T04:07:58;97910.41;;;19.35;100.00
19447;BME280;9862;49.462;11.054;2023-07-31T04:10:25;97909.31;;;19.36;100.00
19447;BME280;9862;49.462;11.054;2023-07-31T04:12:52;97914.72;;;19.31;100.00
19447;BME280;9862;49.462;11.054;2023-07-31T04:15:20;97910.66;;;19.39;100.00
19447;BME280;9862;49.462;11.054;2023-07-31T04:17:48;97903.09;;;19.36;100.00
19447;BME280;9862;49.462;11.054;2023-07-31T04:20:17;97899.06;;;19.33;100.00
19447;BME280;9862;49.462;11.054;2023-07-31T04:22:43;97905.00;;;19.35;100.00
19447;BME280;9862;49.462;11.054;2023-07-31T04:25:10;97907.72;;;19.40;100.00
19447;BME280;9862;49.462;11.054;2023-07-31T04:27:37;97904.47;;;19.49;100.00
19447;BME280;9862;49.462;11.054;2023-07-31T04:30:05;97905.53;;;19.48;100.00
19447;BME280;9862;49.462;11.054;2023-07-31T04:32:32;97900.72;;;19.50;100.00
19447;BME280;9862;49.462;11.054;2023-07-31T04:35:01;97899.34;;;19.52;100.00
19447;BME280;9862;49.462;11.054;2023-07-31T04:37:29;97905.03;;;19.56;100.00
19447;BME280;9862;49.462;11.054;2023-07-31T04:39:56;97899.09;;;19.59;100.00
19447;BME280;9862;49.462;11.054;2023-07-31T04:42:23;97895.34;;;19.70;100.00
19447;BME280;9862;49.462;11.054;2023-07-31T04:44:50;97900.19;;;19.63;100.00
19447;BME280;9862;49.462;11.054;2023-07-31T04:47:18;97893.94;;;19.52;100.00
19447;BME280;9862;49.462;11.054;2023-07-31T04:49:45;97895.00;;;19.46;100.00
19447;BME280;9862;49.462;11.054;2023-07-31T04:52:13;97893.13;;;19.41;100.00
19447;BME280;9862;49.462;11.054;2023-07-31T04:54:41;97886.13;;;19.40;100.00
19447;BME280;9862;49.462;11.054;2023-07-31T04:57:08;97888.00;;;19.45;100.00
19447;BME280;9862;49.462;11.054;2023-07-31T04:59:35;97876.66;;;19.43;100.00
19447;BME280;9862;49.462;11.054;2023-07-31T05:02:02;97882.59;;;19.45;100.00
19447;BME280;9862;49.462;11.054;2023-07-31T05:04:29;97877.19;;;19.45;100.00
19447;BME280;9862;49.462;11.054;2023-07-31T05:06:56;97875.84;;;19.48;100.00
19447;BME280;9862;49.462;11.054;2023-07-31T05:09:23;97881.81;;;19.50;100.00
19447;BME280;9862;49.462;11.054;2023-07-31T05:11:51;97873.75;;;19.60;100.00
19447;BME280;9862;49.462;11.054;2023-07-31T05:14:18;97878.56;;;19.58;100.00
19447;BME280;9862;49.462;11.054;2023-07-31T05:16:45;97875.88;;;19.53;100.00
19447;BME280;9862;49.462;11.054;2023-07-31T05:19:12;97878.28;;;19.49;100.00
19447;BME280;9862;49.462;11.054;2023-07-31T05:21:39;97876.94;;;19.52;100.00
19447;BME280;9862;49.462;11.054;2023-07-31T05:24:06;97883.97;;;19.42;100.00
19447;BME280;9862;49.462;11.054;2023-07-31T05:26:33;97880.72;;;19.40;100.00
19447;BME280;9862;49.462;11.054;2023-07-31T05:29:01;97885.03;;;19.47;100.00
19447;BME280;9862;49.462;11.054;2023-07-31T05:31:28;97887.75;;;19.52;100.00
19447;BME280;9862;49.462;11.054;2023-07-31T05:33:57;97886.41;;;19.64;100.00
19447;BME280;9862;49.462;11.054;2023-07-31T05:36:24;97889.94;;;19.60;100.00
19447;BME280;9862;49.462;11.054;2023-07-31T05:38:51;97885.06;;;19.62;100.00
19447;BME280;9862;49.462;11.054;2023-07-31T05:41:19;97890.47;;;19.62;100.00
19447;BME280;9862;49.462;11.054;2023-07-31T05:43:46;97891.28;;;19.57;100.00
19447;BME280;9862;49.462;11.054;2023-07-31T05:46:14;97888.84;;;19.61;100.00
19447;BME280;9862;49.462;11.054;2023-07-31T05:48:40;97893.97;;;19.72;100.00
19447;BME280;9862;49.462;11.054;2023-07-31T05:51:08;97892.38;;;19.71;100.00
19447;BME280;9862;49.462;11.054;2023-07-31T05:53:35;97887.22;;;19.65;100.00
19447;BME280;9862;49.462;11.054;2023-07-31T05:56:06;97886.97;;;19.61;100.00
19447;BME280;9862;49.462;11.054;2023-07-31T05:58:34;97881.56;;;19.61;100.00
19447;BME280;9862;49.462;11.054;2023-07-31T06:01:01;97886.13;;;19.51;100.00
19447;BME280;9862;49.462;11.054;2023-07-31T06:03:29;97871.00;;;19.55;100.00
19447;BME280;9862;49.462;11.054;2023-07-31T06:05:56;97875.06;;;19.67;100.00
19447;BME280;9862;49.462;11.054;2023-07-31T06:08:23;97874.53;;;19.65;100.00
19447;BME280;9862;49.462;11.054;2023-07-31T06:10:51;97871.53;;;19.77;100.00
19447;BME280;9862;49.462;11.054;2023-07-31T06:13:18;97879.41;;;19.79;100.00
19447;BME280;9862;49.462;11.054;2023-07-31T06:15:45;97869.91;;;19.96;100.00
19447;BME280;9862;49.462;11.054;2023-07-31T06:18:12;97878.31;;;19.90;100.00
19447;BME280;9862;49.462;11.054;2023-07-31T06:20:40;97877.50;;;19.89;100.00
19447;BME280;9862;49.462;11.054;2023-07-31T06:23:07;97884.72;;;20.14;100.00
19447;BME280;9862;49.462;11.054;2023-07-31T06:25:34;97877.47;;;20.10;100.00
19447;BME280;9862;49.462;11.054;2023-07-31T06:28:00;97885.28;;;20.11;100.00
19447;BME280;9862;49.462;11.054;2023-07-31T06:30:27;97888.78;;;20.07;100.00
19447;BME280;9862;49.462;11.054;2023-07-31T06:32:54;97883.13;;;20.08;100.00
19447;BME280;9862;49.462;11.054;2023-07-31T06:35:22;97885.03;;;19.97;100.00
19447;BME280;9862;49.462;11.054;2023-07-31T06:37:50;97885.59;;;19.99;100.00
19447;BME280;9862;49.462;11.054;2023-07-31T06:40:18;97883.94;;;20.09;100.00
19447;BME280;9862;49.462;11.054;2023-07-31T06:42:46;97879.34;;;20.09;100.00
19447;BME280;9862;49.462;11.054;2023-07-31T06:45:13;97873.91;;;20.19;100.00
19447;BME280;9862;49.462;11.054;2023-07-31T06:47:40;97882.31;;;20.13;100.00
19447;BME280;9862;49.462;11.054;2023-07-31T06:50:08;97878.25;;;20.10;100.00
19447;BME280;9862;49.462;11.054;2023-07-31T06:52:35;97875.56;;;20.10;100.00
19447;BME280;9862;49.462;11.054;2023-07-31T06:55:04;97877.97;;;20.07;100.00
19447;BME280;9862;49.462;11.054;2023-07-31T06:57:44;97866.66;;;20.10;100.00
19447;BME280;9862;49.462;11.054;2023-07-31T07:00:11;97874.19;;;20.13;100.00
19447;BME280;9862;49.462;11.054;2023-07-31T07:02:39;97876.13;;;20.02;100.00
19447;BME280;9862;49.462;11.054;2023-07-31T07:05:07;97873.72;;;19.90;100.00
19447;BME280;9862;49.462;11.054;2023-07-31T07:07:34;97882.34;;;19.82;100.00
19447;BME280;9862;49.462;11.054;2023-07-31T07:10:02;97886.97;;;19.71;100.00
19447;BME280;9862;49.462;11.054;2023-07-31T07:12:31;97890.47;;;19.82;100.00
19447;BME280;9862;49.462;11.054;2023-07-31T07:14:58;97882.59;;;19.96;100.00
19447;BME280;9862;49.462;11.054;2023-07-31T07:17:25;97880.72;;;19.91;100.00
19447;BME280;9862;49.462;11.054;2023-07-31T07:19:52;97884.50;;;20.00;100.00
19447;BME280;9862;49.462;11.054;2023-07-31T07:22:20;97882.06;;;20.09;100.00
19447;BME280;9862;49.462;11.054;2023-07-31T07:24:47;97886.94;;;19.82;100.00
19447;BME280;9862;49.462;11.054;2023-07-31T07:27:15;97872.06;;;19.99;100.00
19447;BME280;9862;49.462;11.054;2023-07-31T07:29:43;97881.00;;;20.00;100.00
19447;BME280;9862;49.462;11.054;2023-07-31T07:32:09;97885.84;;;19.98;100.00
19447;BME280;9862;49.462;11.054;2023-07-31T07:34:37;97885.56;;;20.10;100.00
19447;BME280;9862;49.462;11.054;2023-07-31T07:37:05;97883.34;;;20.17;100.00
19447;BME280;9862;49.462;11.054;2023-07-31T07:39:33;97892.84;;;20.14;100.00
19447;BME280;9862;49.462;11.054;2023-07-31T07:42:01;97885.00;;;20.18;100.00
19447;BME280;9862;49.462;11.054;2023-07-31T07:44:29;97886.88;;;20.27;100.00
19447;BME280;9862;49.462;11.054;2023-07-31T07:46:56;97887.09;;;20.36;100.00
19447;BME280;9862;49.462;11.054;2023-07-31T07:49:23;97886.59;;;20.29;100.00
19447;BME280;9862;49.462;11.054;2023-07-31T07:51:49;97893.88;;;20.39;100.00
19447;BME280;9862;49.462;11.054;2023-07-31T07:54:16;97884.44;;;20.21;100.00
19447;BME280;9862;49.462;11.054;2023-07-31T07:56:43;97885.25;;;20.21;100.00
19447;BME280;9862;49.462;11.054;2023-07-31T07:59:09;97887.09;;;20.36;100.00
19447;BME280;9862;49.462;11.054;2023-07-31T08:01:37;97888.72;;;20.42;100.00
19447;BME280;9862;49.462;11.054;2023-07-31T08:04:04;97878.72;;;20.43;100.00
19447;BME280;9862;49.462;11.054;2023-07-31T08:06:31;97876.03;;;20.43;100.00
19447;BME280;9862;49.462;11.054;2023-07-31T08:08:58;97874.38;;;20.52;100.00
19447;BME280;9862;49.462;11.054;2023-07-31T08:11:30;97874.88;;;20.59;100.00
19447;BME280;9862;49.462;11.054;2023-07-31T08:13:57;97878.44;;;20.49;100.00
19447;BME280;9862;49.462;11.054;2023-07-31T08:16:24;97875.22;;;20.47;100.00
19447;BME280;9862;49.462;11.054;2023-07-31T08:18:53;97874.09;;;20.53;100.00
19447;BME280;9862;49.462;11.054;2023-07-31T08:21:21;97882.72;;;20.55;100.00
19447;BME280;9862;49.462;11.054;2023-07-31T08:23:47;97879.50;;;20.58;100.00
19447;BME280;9862;49.462;11.054;2023-07-31T08:26:15;97878.38;;;20.65;100.00
19447;BME280;9862;49.462;11.054;2023-07-31T08:28:42;97875.09;;;20.73;100.00
19447;BME280;9862;49.462;11.054;2023-07-31T08:31:09;97865.28;;;20.87;100.00
19447;BME280;9862;49.462;11.054;2023-07-31T08:33:36;97856.53;;;21.05;100.00
19447;BME280;9862;49.462;11.054;2023-07-31T08:36:04;97845.91;;;21.14;100.00
19447;BME280;9862;49.462;11.054;2023-07-31T08:38:32;97834.75;;;21.21;100.00
19447;BME280;9862;49.462;11.054;2023-07-31T08:40:58;97833.13;;;21.25;100.00
19447;BME280;9862;49.462;11.054;2023-07-31T08:43:27;97830.47;;;21.14;100.00
19447;BME280;9862;49.462;11.054;2023-07-31T08:45:54;97823.69;;;21.17;100.00
19447;BME280;9862;49.462;11.054;2023-07-31T08:48:23;97824.22;;;21.19;100.00
19447;BME280;9862;49.462;11.054;2023-07-31T08:50:50;97825.25;;;21.28;100.00
19447;BME280;9862;49.462;11.054;2023-07-31T08:53:19;97829.91;;;21.18;100.00
19447;BME280;9862;49.462;11.054;2023-07-31T08:55:47;97834.81;;;21.10;100.00
19447;BME280;9862;49.462;11.054;2023-07-31T08:58:15;97825.47;;;20.93;100.00
19447;BME280;9862;49.462;11.054;2023-07-31T09:00:46;97827.34;;;20.97;100.00
19447;BME280;9862;49.462;11.054;2023-07-31T09:03:14;97831.63;;;21.03;100.00
19447;BME280;9862;49.462;11.054;2023-07-31T09:05:43;97827.22;;;21.12;100.00
19447;BME280;9862;49.462;11.054;2023-07-31T09:08:10;97821.78;;;21.18;100.00
19447;BME280;9862;49.462;11.054;2023-07-31T09:10:41;97835.91;;;21.14;100.00
19447;BME280;9862;49.462;11.054;2023-07-31T09:13:08;97825.53;;;21.22;100.00
19447;BME280;9862;49.462;11.054;2023-07-31T09:15:35;97827.31;;;21.41;100.00
19447;BME280;9862;49.462;11.054;2023-07-31T09:18:04;97817.56;;;21.40;100.00
19447;BME280;9862;49.462;11.054;2023-07-31T09:20:31;97823.66;;;21.56;100.00
19447;BME280;9862;49.462;11.054;2023-07-31T09:23:06;97810.63;;;21.63;100.00
19447;BME280;9862;49.462;11.054;2023-07-31T09:25:33;97812.41;;;21.73;100.00
19447;BME280;9862;49.462;11.054;2023-07-31T09:28:03;97808.72;;;21.88;100.00
19447;BME280;9862;49.462;11.054;2023-07-31T09:30:31;97809.63;;;21.78;100.00
19447;BME280;9862;49.462;11.054;2023-07-31T09:33:05;97807.63;;;21.65;100.00
19447;BME280;9862;49.462;11.054;2023-07-31T09:35:34;97819.03;;;21.62;100.00
19447;BME280;9862;49.462;11.054;2023-07-31T09:38:06;97806.84;;;21.59;100.00
19447;BME280;9862;49.462;11.054;2023-07-31T09:40:34;97811.84;;;21.76;100.00
19447;BME280;9862;49.462;11.054;2023-07-31T09:43:04;97804.84;;;21.70;100.00
19447;BME280;9862;49.462;11.054;2023-07-31T09:45:55;97798.63;;;21.69;100.00
19447;BME280;9862;49.462;11.054;2023-07-31T09:48:23;97802.84;;;21.81;100.00
19447;BME280;9862;49.462;11.054;2023-07-31T09:50:53;97803.19;;;21.74;100.00
19447;BME280;9862;49.462;11.054;2023-07-31T09:53:28;97798.06;;;21.73;100.00
19447;BME280;9862;49.462;11.054;2023-07-31T09:55:58;97786.69;;;21.70;100.00
19447;BME280;9862;49.462;11.054;2023-07-31T09:58:28;97780.09;;;21.82;100.00
19447;BME280;9862;49.462;11.054;2023-07-31T10:00:57;97783.25;;;21.89;100.00
19447;BME280;9862;49.462;11.054;2023-07-31T10:03:24;97790.53;;;21.93;100.00
19447;BME280;9862;49.462;11.054;2023-07-31T10:05:53;97782.03;;;22.00;100.00
19447;BME280;9862;49.462;11.054;2023-07-31T10:08:25;97785.56;;;22.00;100.00
19447;BME280;9862;49.462;11.054;2023-07-31T10:10:55;97774.88;;;22.14;100.00
19447;BME280;9862;49.462;11.054;2023-07-31T10:13:25;97776.56;;;22.29;100.00
19447;BME280;9862;49.462;11.054;2023-07-31T10:15:58;97769.19;;;22.35;100.00
19447;BME280;9862;49.462;11.054;2023-07-31T10:18:26;97761.94;;;22.30;100.00
19447;BME280;9862;49.462;11.054;2023-07-31T10:20:56;97762.28;;;22.23;100.00
19447;BME280;9862;49.462;11.054;2023-07-31T10:23:24;97748.78;;;22.18;100.00
19447;BME280;9862;49.462;11.054;2023-07-31T10:25:52;97750.53;;;22.09;100.00
19447;BME280;9862;49.462;11.054;2023-07-31T10:28:20;97752.66;;;22.12;100.00
19447;BME280;9862;49.462;11.054;2023-07-31T10:30:47;97744.53;;;22.12;100.00
19447;BME280;9862;49.462;11.054;2023-07-31T10:33:17;97746.59;;;22.20;100.00
19447;BME280;9862;49.462;11.054;2023-07-31T10:35:47;97743.31;;;22.23;100.00
19447;BME280;9862;49.462;11.054;2023-07-31T10:38:14;97745.06;;;22.33;100.00
19447;BME280;9862;49.462;11.054;2023-07-31T10:40:41;97726.25;;;22.42;100.00
19447;BME280;9862;49.462;11.054;2023-07-31T10:43:08;97736.72;;;22.48;100.00
19447;BME280;9862;49.462;11.054;2023-07-31T10:45:42;97724.56;;;22.46;100.00
19447;BME280;9862;49.462;11.054;2023-07-31T10:48:13;97715.25;;;22.52;100.00
19447;BME280;9862;49.462;11.054;2023-07-31T10:50:47;97709.53;;;22.72;100.00
19447;BME280;9862;49.462;11.054;2023-07-31T10:53:23;97708.25;;;22.83;100.00
19447;BME280;9862;49.462;11.054;2023-07-31T10:55:50;97703.72;;;22.79;100.00
19447;BME280;9862;49.462;11.054;2023-07-31T10:58:20;97707.53;;;22.78;100.00
19447;BME280;9862;49.462;11.054;2023-07-31T11:00:47;97707.75;;;22.81;100.00
19447;BME280;9862;49.462;11.054;2023-07-31T11:03:16;97714.84;;;22.77;100.00
19447;BME280;9862;49.462;11.054;2023-07-31T11:05:52;97702.47;;;22.71;100.00
19447;BME280;9862;49.462;11.054;2023-07-31T11:08:22;97697.13;;;22.66;100.00
19447;BME280;9862;49.462;11.054;2023-07-31T11:10:50;97695.38;;;22.56;100.00
19447;BME280;9862;49.462;11.054;2023-07-31T11:13:18;97693.75;;;22.55;100.00
19447;BME280;9862;49.462;11.054;2023-07-31T11:15:44;97691.78;;;22.61;100.00
19447;BME280;9862;49.462;11.054;2023-07-31T11:18:11;97687.88;;;22.67;100.00
19447;BME280;9862;49.462;11.054;2023-07-31T11:20:38;97692.81;;;22.65;100.00
19447;BME280;9862;49.462;11.054;2023-07-31T11:23:08;97683.06;;;22.64;100.00
19447;BME280;9862;49.462;11.054;2023-07-31T11:25:36;97677.03;;;22.67;100.00
19447;BME280;9862;49.462;11.054;2023-07-31T11:28:05;97690.03;;;22.70;100.00
19447;BME280;9862;49.462;11.054;2023-07-31T11:30:33;97689.53;;;22.49;100.00
19447;BME280;9862;49.462;11.054;2023-07-31T11:33:01;97691.50;;;22.44;100.00
19447;BME280;9862;49.462;11.054;2023-07-31T11:35:30;97695.31;;;22.43;100.00
19447;BME280;9862;49.462;11.054;2023-07-31T11:37:57;97706.22;;;22.38;100.00
19447;BME280;9862;49.462;11.054;2023-07-31T11:40:25;97695.81;;;22.26;100.00
19447;BME280;9862;49.462;11.054;2023-07-31T11:42:56;97697.66;;;22.31;100.00
19447;BME280;9862;49.462;11.054;2023-07-31T11:45:25;97692.25;;;22.31;100.00
19447;BME280;9862;49.462;11.054;2023-07-31T11:47:54;97687.84;;;22.35;100.00
19447;BME280;9862;49.462;11.054;2023-07-31T11:50:23;97688.59;;;22.40;100.00
19447;BME280;9862;49.462;11.054;2023-07-31T11:52:55;97677.13;;;22.43;100.00
19447;BME280;9862;49.462;11.054;2023-07-31T11:55:25;97669.50;;;22.45;100.00
19447;BME280;9862;49.462;11.054;2023-07-31T11:57:55;97672.47;;;22.49;100.00
19447;BME280;9862;49.462;11.054;2023-07-31T12:00:23;97681.41;;;22.49;100.00
19447;BME280;9862;49.462;11.054;2023-07-31T12:02:51;97676.69;;;22.55;100.00
19447;BME280;9862;49.462;11.054;2023-07-31T12:05:18;97681.09;;;22.51;100.00
19447;BME280;9862;49.462;11.054;2023-07-31T12:07:47;97678.28;;;22.56;100.00
19447;BME280;9862;49.462;11.054;2023-07-31T12:10:26;97664.31;;;22.49;100.00
19447;BME280;9862;49.462;11.054;2023-07-31T12:13:01;97670.47;;;22.54;100.00
19447;BME280;9862;49.462;11.054;2023-07-31T12:15:35;97671.50;;;22.40;100.00
19447;BME280;9862;49.462;11.054;2023-07-31T12:18:08;97669.00;;;22.43;100.00
19447;BME280;9862;49.462;11.054;2023-07-31T12:20:35;97668.47;;;22.60;100.00
19447;BME280;9862;49.462;11.054;2023-07-31T12:23:02;97670.72;;;22.72;100.00
19447;BME280;9862;49.462;11.054;2023-07-31T12:25:33;97658.91;;;22.81;100.00
19447;BME280;9862;49.462;11.054;2023-07-31T12:28:06;97663.59;;;22.95;100.00
19447;BME280;9862;49.462;11.054;2023-07-31T12:30:37;97660.88;;;22.95;100.00
19447;BME280;9862;49.462;11.054;2023-07-31T12:33:07;97649.66;;;22.82;100.00
19447;BME280;9862;49.462;11.054;2023-07-31T12:35:36;97649.16;;;22.80;100.00
19447;BME280;9862;49.462;11.054;2023-07-31T12:38:03;97651.72;;;22.91;100.00
19447;BME280;9862;49.462;11.054;2023-07-31T12:40:30;97646.31;;;22.91;100.00
19447;BME280;9862;49.462;11.054;2023-07-31T12:43:01;97648.50;;;22.89;100.00
19447;BME280;9862;49.462;11.054;2023-07-31T12:45:29;97643.88;;;22.89;100.00
19447;BME280;9862;49.462;11.054;2023-07-31T12:47:58;97636.56;;;22.90;100.00
19447;BME280;9862;49.462;11.054;2023-07-31T12:50:25;97621.53;;;22.78;100.00
19447;BME280;9862;49.462;11.054;2023-07-31T12:52:52;97631.19;;;22.84;100.00
19447;BME280;9862;49.462;11.054;2023-07-31T12:55:19;97624.31;;;22.73;100.00